sensor_id;sensor_type;location;lat;lon;timestamp;pressure;altitude;pressure_sealevel;temperature;humidity
25658;BME280;13517;59.320;18.042;2023-03-14T00:02:21;96724.91;;;4.43;100.00
25658;BME280;13517;59.320;18.042;2023-03-14T00:04:46;96727.94;;;4.40;100.00
25658;BME280;13517;59.320;18.042;2023-03-14T00:07:12;96618.81;;;3.84;100.00
25658;BME280;13517;59.320;18.042;2023-03-14T00:09:38;96707.19;;;4.34;100.00
25658;BME280;13517;59.320;18.042;2023-03-14T00:12:03;96728.16;;;4.55;100.00
25658;BME280;13517;59.320;18.042;2023-03-14T00:14:30;96725.47;;;4.55;100.00
25658;BME280;13517;59.320;18.042;2023-03-14T00:16:56;96721.47;;;4.51;100.00
25658;BME280;13517;59.320;18.042;2023-03-14T00:19:21;96639.91;;;4.04;100.00
25658;BME280;13517;59.320;18.042;2023-03-14T00:21:47;96732.03;;;4.61;100.00
25658;BME280;13517;59.320;18.042;2023-03-14T00:24:12;96732.03;;;4.61;100.00
25658;BME280;13517;59.320;18.042;2023-03-14T00:26:38;96636.72;;;4.00;100.00
25658;BME280;13517;59.320;18.042;2023-03-14T00:29:03;96713.91;;;4.46;100.00
25658;BME280;13517;59.320;18.042;2023-03-14T00:31:29;96695.00;;;4.40;100.00
25658;BME280;13517;59.320;18.042;2023-03-14T00:33:54;96716.28;;;4.58;100.00
25658;BME280;13517;59.320;18.042;2023-03-14T00:36:20;96605.50;;;3.92;100.00
25658;BME280;13517;59.320;18.042;2023-03-14T00:38:48;96723.16;;;4.60;100.00
25658;BME280;13517;59.320;18.042;2023-03-14T00:41:16;96605.88;;;3.98;100.00
25658;BME280;13517;59.320;18.042;2023-03-14T00:43:42;96692.22;;;4.49;100.00
25658;BME280;13517;59.320;18.042;2023-03-14T00:46:08;96714.00;;;4.63;100.00
25658;BME280;13517;59.320;18.042;2023-03-14T00:48:34;96676.50;;;4.46;100.00
25658;BME280;13517;59.320;18.042;2023-03-14T00:51:01;96720.66;;;4.67;100.00
25658;BME280;13517;59.320;18.042;2023-03-14T00:53:27;96690.44;;;4.58;100.00
25658;BME280;13517;59.320;18.042;2023-03-14T00:55:52;96699.97;;;4.61;100.00
25658;BME280;13517;59.320;18.042;2023-03-14T00:58:18;96693.44;;;4.63;100.00
25658;BME280;13517;59.320;18.042;2023-03-14T01:00:44;96666.66;;;4.47;100.00
25658;BME280;13517;59.320;18.042;2023-03-14T01:03:10;96628.00;;;4.25;100.00
25658;BME280;13517;59.320;18.042;2023-03-14T01:05:37;96687.25;;;4.63;100.00
25658;BME280;13517;59.320;18.042;2023-03-14T01:08:03;96697.81;;;4.73;100.00
25658;BME280;13517;59.320;18.042;2023-03-14T01:10:29;96673.06;;;4.62;100.00
25658;BME280;13517;59.320;18.042;2023-03-14T01:12:54;96703.69;;;4.76;100.00
25658;BME280;13517;59.320;18.042;2023-03-14T01:15:20;96667.38;;;4.57;100.00
25658;BME280;13517;59.320;18.042;2023-03-14T01:17:45;96591.72;;;4.14;100.00
25658;BME280;13517;59.320;18.042;2023-03-14T01:20:12;96670.88;;;4.66;100.00
25658;BME280;13517;59.320;18.042;2023-03-14T01:22:39;96683.47;;;4.82;100.00
25658;BME280;13517;59.320;18.042;2023-03-14T01:25:14;96628.72;;;4.43;100.00
25658;BME280;13517;59.320;18.042;2023-03-14T01:27:40;96636.41;;;4.46;100.00
25658;BME280;13517;59.320;18.042;2023-03-14T01:30:07;96683.44;;;4.74;100.00
25658;BME280;13517;59.320;18.042;2023-03-14T01:32:33;96665.88;;;4.63;100.00
25658;BME280;13517;59.320;18.042;2023-03-14T01:34:59;96642.31;;;4.50;100.00
25658;BME280;13517;59.320;18.042;2023-03-14T01:37:24;96673.63;;;4.83;100.00
25658;BME280;13517;59.320;18.042;2023-03-14T01:39:50;96688.13;;;4.72;100.00
25658;BME280;13517;59.320;18.042;2023-03-14T01:42:15;96654.66;;;4.51;100.00
25658;BME280;13517;59.320;18.042;2023-03-14T01:47:17;96633.75;;;4.46;100.00
25658;BME280;13517;59.320;18.042;2023-03-14T01:49:42;96684.59;;;4.71;100.00
25658;BME280;13517;59.320;18.042;2023-03-14T01:52:13;96685.97;;;4.75;100.00
25658;BME280;13517;59.320;18.042;2023-03-14T01:54:48;96686.94;;;4.74;100.00
25658;BME280;13517;59.320;18.042;2023-03-14T01:58:09;96709.53;;;4.80;100.00
25658;BME280;13517;59.320;18.042;2023-03-14T02:00:20;96712.72;;;4.84;100.00
25658;BME280;13517;59.320;18.042;2023-03-14T02:02:55;96715.56;;;4.82;100.00
25658;BME280;13517;59.320;18.042;2023-03-14T02:05:28;96708.50;;;4.73;100.00
25658;BME280;13517;59.320;18.042;2023-03-14T02:07:57;96735.13;;;4.83;100.00
25658;BME280;13517;59.320;18.042;2023-03-14T02:10:25;96746.47;;;4.85;100.00
25658;BME280;13517;59.320;18.042;2023-03-14T02:12:55;96729.56;;;4.76;100.00
25658;BME280;13517;59.320;18.042;2023-03-14T02:15:22;96731.56;;;4.74;100.00
25658;BME280;13517;59.320;18.042;2023-03-14T02:17:47;96755.31;;;4.85;100.00
25658;BME280;13517;59.320;18.042;2023-03-14T02:20:28;96770.53;;;4.85;100.00
25658;BME280;13517;59.320;18.042;2023-03-14T02:22:56;96736.91;;;4.74;100.00
25658;BME280;13517;59.320;18.042;2023-03-14T02:25:51;96742.78;;;4.77;100.00
25658;BME280;13517;59.320;18.042;2023-03-14T02:28:19;96739.63;;;4.82;100.00
25658;BME280;13517;59.320;18.042;2023-03-14T02:30:45;96755.84;;;4.89;100.00
25658;BME280;13517;59.320;18.042;2023-03-14T02:33:14;96755.53;;;4.92;100.00
25658;BME280;13517;59.320;18.042;2023-03-14T02:35:52;96759.34;;;4.89;100.00
25658;BME280;13517;59.320;18.042;2023-03-14T02:38:36;96743.09;;;4.74;100.00
25658;BME280;13517;59.320;18.042;2023-03-14T02:41:03;96762.88;;;4.90;100.00
25658;BME280;13517;59.320;18.042;2023-03-14T02:43:29;96766.38;;;4.90;100.00
25658;BME280;13517;59.320;18.042;2023-03-14T02:45:55;96766.06;;;4.94;100.00
25658;BME280;13517;59.320;18.042;2023-03-14T02:50:47;96771.75;;;4.99;100.00
25658;BME280;13517;59.320;18.042;2023-03-14T02:53:18;96777.59;;;5.02;100.00
25658;BME280;13517;59.320;18.042;2023-03-14T02:55:45;96753.47;;;4.77;100.00
25658;BME280;13517;59.320;18.042;2023-03-14T02:58:11;96687.19;;;4.46;100.00
25658;BME280;13517;59.320;18.042;2023-03-14T03:00:36;96773.25;;;5.01;100.00
25658;BME280;13517;59.320;18.042;2023-03-14T03:03:02;96775.25;;;4.91;100.00
25658;BME280;13517;59.320;18.042;2023-03-14T03:05:27;96724.00;;;4.61;100.00
25658;BME280;13517;59.320;18.042;2023-03-14T03:07:53;96704.91;;;4.47;100.00
25658;BME280;13517;59.320;18.042;2023-03-14T03:10:18;96782.78;;;4.96;100.00
25658;BME280;13517;59.320;18.042;2023-03-14T03:12:44;96759.63;;;4.78;100.00
25658;BME280;13517;59.320;18.042;2023-03-14T03:15:09;96762.16;;;4.80;100.00
25658;BME280;13517;59.320;18.042;2023-03-14T03:17:35;96720.63;;;4.59;100.00
25658;BME280;13517;59.320;18.042;2023-03-14T03:20:00;96779.94;;;4.97;100.00
25658;BME280;13517;59.320;18.042;2023-03-14T03:22:26;96743.75;;;4.68;100.00
25658;BME280;13517;59.320;18.042;2023-03-14T03:24:51;96798.69;;;4.97;100.00
25658;BME280;13517;59.320;18.042;2023-03-14T03:27:17;96751.06;;;4.66;100.00
25658;BME280;13517;59.320;18.042;2023-03-14T03:29:42;96773.69;;;4.80;100.00
25658;BME280;13517;59.320;18.042;2023-03-14T03:32:07;96770.00;;;4.73;100.00
25658;BME280;13517;59.320;18.042;2023-03-14T03:34:33;96781.03;;;4.78;100.00
25658;BME280;13517;59.320;18.042;2023-03-14T03:36:58;96803.13;;;4.88;100.00
25658;BME280;13517;59.320;18.042;2023-03-14T03:39:24;96818.41;;;5.04;100.00
25658;BME280;13517;59.320;18.042;2023-03-14T03:41:49;96779.16;;;4.70;100.00
25658;BME280;13517;59.320;18.042;2023-03-14T03:44:14;96770.81;;;4.73;100.00
25658;BME280;13517;59.320;18.042;2023-03-14T03:46:40;96826.41;;;4.96;100.00
25658;BME280;13517;59.320;18.042;2023-03-14T03:49:05;96789.94;;;4.87;100.00
25658;BME280;13517;59.320;18.042;2023-03-14T03:51:31;96834.13;;;5.08;100.00
25658;BME280;13517;59.320;18.042;2023-03-14T03:53:56;96810.03;;;4.99;100.00
25658;BME280;13517;59.320;18.042;2023-03-14T03:56:22;96804.84;;;4.98;100.00
25658;BME280;13517;59.320;18.042;2023-03-14T03:58:47;96829.41;;;5.01;100.00
25658;BME280;13517;59.320;18.042;2023-03-14T04:01:13;96816.41;;;5.07;100.00
25658;BME280;13517;59.320;18.042;2023-03-14T04:03:38;96772.22;;;4.86;100.00
25658;BME280;13517;59.320;18.042;2023-03-14T04:06:09;96834.00;;;5.17;100.00
25658;BME280;13517;59.320;18.042;2023-03-14T04:08:35;96816.94;;;5.10;100.00
25658;BME280;13517;59.320;18.042;2023-03-14T04:11:01;96797.66;;;4.90;100.00
25658;BME280;13517;59.320;18.042;2023-03-14T04:13:28;96850.09;;;5.26;100.00
25658;BME280;13517;59.320;18.042;2023-03-14T04:15:54;96797.19;;;5.03;100.00
25658;BME280;13517;59.320;18.042;2023-03-14T04:18:20;96767.19;;;4.83;100.00
25658;BME280;13517;59.320;18.042;2023-03-14T04:20:51;96809.91;;;5.09;100.00
25658;BME280;13517;59.320;18.042;2023-03-14T04:23:17;96817.78;;;5.11;100.00
25658;BME280;13517;59.320;18.042;2023-03-14T04:25:42;96787.63;;;4.92;100.00
25658;BME280;13517;59.320;18.042;2023-03-14T04:28:07;96773.81;;;4.70;100.00
25658;BME280;13517;59.320;18.042;2023-03-14T04:30:33;96837.41;;;4.93;100.00
25658;BME280;13517;59.320;18.042;2023-03-14T04:32:58;96768.34;;;4.45;100.00
25658;BME280;13517;59.320;18.042;2023-03-14T04:35:24;96854.66;;;4.99;100.00
25658;BME280;13517;59.320;18.042;2023-03-14T04:37:49;96835.22;;;4.88;100.00
25658;BME280;13517;59.320;18.042;2023-03-14T04:40:17;96839.56;;;4.89;100.00
25658;BME280;13517;59.320;18.042;2023-03-14T04:42:43;96880.47;;;5.08;100.00
25658;BME280;13517;59.320;18.042;2023-03-14T04:45:08;96853.78;;;4.90;100.00
25658;BME280;13517;59.320;18.042;2023-03-14T04:47:34;96865.19;;;5.00;100.00
25658;BME280;13517;59.320;18.042;2023-03-14T04:49:59;96860.19;;;4.97;100.00
25658;BME280;13517;59.320;18.042;2023-03-14T04:52:25;96853.94;;;4.88;100.00
25658;BME280;13517;59.320;18.042;2023-03-14T04:54:51;96850.63;;;4.95;100.00
25658;BME280;13517;59.320;18.042;2023-03-14T04:57:16;96823.72;;;4.61;100.00
25658;BME280;13517;59.320;18.042;2023-03-14T04:59:42;96736.47;;;4.17;100.00
25658;BME280;13517;59.320;18.042;2023-03-14T05:02:07;96889.31;;;5.09;100.00
25658;BME280;13517;59.320;18.042;2023-03-14T05:04:33;96855.00;;;4.69;100.00
25658;BME280;13517;59.320;18.042;2023-03-14T05:06:59;96903.69;;;5.08;100.00
25658;BME280;13517;59.320;18.042;2023-03-14T05:09:25;96810.94;;;4.47;100.00
25658;BME280;13517;59.320;18.042;2023-03-14T05:11:50;96869.09;;;4.80;100.00
25658;BME280;13517;59.320;18.042;2023-03-14T05:14:16;96876.50;;;4.86;100.00
25658;BME280;13517;59.320;18.042;2023-03-14T05:16:41;96913.66;;;4.97;100.00
25658;BME280;13517;59.320;18.042;2023-03-14T05:19:06;96879.38;;;4.66;100.00
25658;BME280;13517;59.320;18.042;2023-03-14T05:21:32;96955.50;;;5.07;100.00
25658;BME280;13517;59.320;18.042;2023-03-14T05:23:57;96856.84;;;4.42;100.00
25658;BME280;13517;59.320;18.042;2023-03-14T05:26:23;96960.44;;;4.93;100.00
25658;BME280;13517;59.320;18.042;2023-03-14T05:28:48;96942.03;;;4.90;100.00
25658;BME280;13517;59.320;18.042;2023-03-14T05:31:14;96942.13;;;4.80;100.00
25658;BME280;13517;59.320;18.042;2023-03-14T05:33:39;96905.56;;;4.62;100.00
25658;BME280;13517;59.320;18.042;2023-03-14T05:36:05;96939.59;;;4.79;100.00
25658;BME280;13517;59.320;18.042;2023-03-14T05:38:31;96932.53;;;4.69;100.00
25658;BME280;13517;59.320;18.042;2023-03-14T05:40:57;96945.19;;;4.67;100.00
25658;BME280;13517;59.320;18.042;2023-03-14T05:43:22;96987.41;;;5.00;100.00
25658;BME280;13517;59.320;18.042;2023-03-14T05:45:48;96949.88;;;4.65;100.00
25658;BME280;13517;59.320;18.042;2023-03-14T05:48:13;96964.81;;;4.76;100.00
25658;BME280;13517;59.320;18.042;2023-03-14T05:50:38;96990.09;;;4.82;100.00
25658;BME280;13517;59.320;18.042;2023-03-14T05:53:04;96930.34;;;4.46;100.00
25658;BME280;13517;59.320;18.042;2023-03-14T05:55:29;97000.69;;;4.91;100.00
25658;BME280;13517;59.320;18.042;2023-03-14T05:57:55;97007.59;;;4.76;100.00
25658;BME280;13517;59.320;18.042;2023-03-14T06:00:21;97016.81;;;4.82;100.00
25658;BME280;13517;59.320;18.042;2023-03-14T06:02:46;97034.09;;;4.87;100.00
25658;BME280;13517;59.320;18.042;2023-03-14T06:05:12;97017.66;;;4.82;100.00
25658;BME280;13517;59.320;18.042;2023-03-14T06:07:37;97034.78;;;4.89;100.00
25658;BME280;13517;59.320;18.042;2023-03-14T06:10:03;97054.16;;;4.91;100.00
25658;BME280;13517;59.320;18.042;2023-03-14T06:12:29;96988.75;;;4.59;100.00
25658;BME280;13517;59.320;18.042;2023-03-14T06:14:54;96995.63;;;4.62;100.00
25658;BME280;13517;59.320;18.042;2023-03-14T06:17:20;97055.56;;;4.96;100.00
25658;BME280;13517;59.320;18.042;2023-03-14T06:19:45;97067.09;;;4.96;100.00
25658;BME280;13517;59.320;18.042;2023-03-14T06:22:10;97070.06;;;4.93;100.00
25658;BME280;13517;59.320;18.042;2023-03-14T06:24:36;97024.50;;;4.58;100.00
25658;BME280;13517;59.320;18.042;2023-03-14T06:27:01;97068.00;;;4.87;100.00
25658;BME280;13517;59.320;18.042;2023-03-14T06:29:29;97089.09;;;4.90;100.00
25658;BME280;13517;59.320;18.042;2023-03-14T06:31:57;97077.09;;;4.76;100.00
25658;BME280;13517;59.320;18.042;2023-03-14T06:34:22;97071.53;;;4.69;100.00
25658;BME280;13517;59.320;18.042;2023-03-14T06:36:48;97057.84;;;4.54;100.00
25658;BME280;13517;59.320;18.042;2023-03-14T06:39:13;97044.56;;;4.44;100.00
25658;BME280;13517;59.320;18.042;2023-03-14T06:41:38;97120.13;;;4.83;100.00
25658;BME280;13517;59.320;18.042;2023-03-14T06:44:04;97124.31;;;4.85;100.00
25658;BME280;13517;59.320;18.042;2023-03-14T06:46:31;97113.38;;;4.79;100.00
25658;BME280;13517;59.320;18.042;2023-03-14T06:48:56;97098.41;;;4.68;100.00
25658;BME280;13517;59.320;18.042;2023-03-14T06:51:22;97113.38;;;4.79;100.00
25658;BME280;13517;59.320;18.042;2023-03-14T06:53:47;97141.75;;;4.89;100.00
25658;BME280;13517;59.320;18.042;2023-03-14T06:56:13;97087.94;;;4.56;100.00
25658;BME280;13517;59.320;18.042;2023-03-14T06:58:38;97147.81;;;4.82;100.00
25658;BME280;13517;59.320;18.042;2023-03-14T07:01:04;97082.75;;;4.36;100.00
25658;BME280;13517;59.320;18.042;2023-03-14T07:03:29;97129.81;;;4.66;100.00
25658;BME280;13517;59.320;18.042;2023-03-14T07:05:55;97125.88;;;4.60;100.00
25658;BME280;13517;59.320;18.042;2023-03-14T07:08:20;97174.19;;;4.76;100.00
25658;BME280;13517;59.320;18.042;2023-03-14T07:10:46;97151.19;;;4.66;100.00
25658;BME280;13517;59.320;18.042;2023-03-14T07:13:11;97176.47;;;4.71;100.00
25658;BME280;13517;59.320;18.042;2023-03-14T07:15:37;97146.41;;;4.41;100.00
25658;BME280;13517;59.320;18.042;2023-03-14T07:18:02;97196.47;;;4.67;100.00
25658;BME280;13517;59.320;18.042;2023-03-14T07:20:28;97201.00;;;4.67;100.00
25658;BME280;13517;59.320;18.042;2023-03-14T07:22:54;97171.81;;;4.45;100.00
25658;BME280;13517;59.320;18.042;2023-03-14T07:25:20;97231.16;;;4.77;100.00
25658;BME280;13517;59.320;18.042;2023-03-14T07:27:46;97228.66;;;4.75;100.00
25658;BME280;13517;59.320;18.042;2023-03-14T07:30:13;97177.38;;;4.34;100.00
25658;BME280;13517;59.320;18.042;2023-03-14T07:32:38;97193.53;;;4.42;100.00
25658;BME280;13517;59.320;18.042;2023-03-14T07:35:04;97216.63;;;4.61;100.00
25658;BME280;13517;59.320;18.042;2023-03-14T07:37:29;97256.50;;;4.83;100.00
25658;BME280;13517;59.320;18.042;2023-03-14T07:39:55;97183.47;;;4.26;100.00
25658;BME280;13517;59.320;18.042;2023-03-14T07:42:20;97257.53;;;4.72;100.00
25658;BME280;13517;59.320;18.042;2023-03-14T07:44:46;97261.44;;;4.77;100.00
25658;BME280;13517;59.320;18.042;2023-03-14T07:47:11;97253.59;;;4.66;100.00
25658;BME280;13517;59.320;18.042;2023-03-14T07:49:37;97205.34;;;4.40;100.00
25658;BME280;13517;59.320;18.042;2023-03-14T07:52:02;97256.38;;;4.74;100.00
25658;BME280;13517;59.320;18.042;2023-03-14T07:54:27;97252.09;;;4.82;100.00
25658;BME280;13517;59.320;18.042;2023-03-14T07:56:53;97250.16;;;4.84;100.00
25658;BME280;13517;59.320;18.042;2023-03-14T07:59:18;97262.47;;;4.95;100.00
25658;BME280;13517;59.320;18.042;2023-03-14T08:01:45;97254.44;;;4.95;100.00
25658;BME280;13517;59.320;18.042;2023-03-14T08:04:10;97278.97;;;5.18;100.00
25658;BME280;13517;59.320;18.042;2023-03-14T08:06:36;97281.78;;;5.16;100.00
25658;BME280;13517;59.320;18.042;2023-03-14T08:09:02;97263.47;;;5.40;100.00
25658;BME280;13517;59.320;18.042;2023-03-14T08:11:28;97233.00;;;5.23;100.00
25658;BME280;13517;59.320;18.042;2023-03-14T08:13:53;97281.25;;;5.67;100.00
25658;BME280;13517;59.320;18.042;2023-03-14T08:16:19;97260.31;;;5.63;100.00
25658;BME280;13517;59.320;18.042;2023-03-14T08:18:45;97288.53;;;5.93;100.00
25658;BME280;13517;59.320;18.042;2023-03-14T08:21:11;97313.38;;;6.22;100.00
25658;BME280;13517;59.320;18.042;2023-03-14T08:23:37;97255.78;;;5.81;100.00
25658;BME280;13517;59.320;18.042;2023-03-14T08:26:02;97270.94;;;5.72;100.00
25658;BME280;13517;59.320;18.042;2023-03-14T08:28:28;97322.44;;;5.84;100.00
25658;BME280;13517;59.320;18.042;2023-03-14T08:30:57;97315.53;;;5.82;100.00
25658;BME280;13517;59.320;18.042;2023-03-14T08:33:23;97311.03;;;5.82;100.00
25658;BME280;13517;59.320;18.042;2023-03-14T08:35:52;97343.78;;;5.76;100.00
25658;BME280;13517;59.320;18.042;2023-03-14T08:38:17;97313.28;;;5.23;100.00
25658;BME280;13517;59.320;18.042;2023-03-14T08:40:43;97313.16;;;4.96;100.00
25658;BME280;13517;59.320;18.042;2023-03-14T08:43:08;97313.59;;;4.82;100.00
25658;BME280;13517;59.320;18.042;2023-03-14T08:45:34;97293.75;;;4.84;100.00
25658;BME280;13517;59.320;18.042;2023-03-14T08:47:59;97347.63;;;5.27;100.00
25658;BME280;13517;59.320;18.042;2023-03-14T08:50:25;97342.25;;;5.27;100.00
25658;BME280;13517;59.320;18.042;2023-03-14T08:52:50;97313.97;;;4.97;100.00
25658;BME280;13517;59.320;18.042;2023-03-14T08:55:16;97349.94;;;5.12;100.00
25658;BME280;13517;59.320;18.042;2023-03-14T08:57:41;97315.31;;;4.83;100.00
25658;BME280;13517;59.320;18.042;2023-03-14T09:00:07;97322.19;;;4.85;100.00
25658;BME280;13517;59.320;18.042;2023-03-14T09:02:36;97359.34;;;4.88;100.00
25658;BME280;13517;59.320;18.042;2023-03-14T09:05:01;97284.66;;;4.39;100.00
25658;BME280;13517;59.320;18.042;2023-03-14T09:07:27;97283.00;;;4.28;100.00
25658;BME280;13517;59.320;18.042;2023-03-14T09:09:52;97329.91;;;4.50;100.00
25658;BME280;13517;59.320;18.042;2023-03-14T09:12:18;97325.16;;;4.44;100.00
25658;BME280;13517;59.320;18.042;2023-03-14T09:14:43;97324.44;;;4.42;100.00
25658;BME280;13517;59.320;18.042;2023-03-14T09:17:08;97268.69;;;4.19;100.00
25658;BME280;13517;59.320;18.042;2023-03-14T09:19:34;97343.91;;;4.72;100.00
25658;BME280;13517;59.320;18.042;2023-03-14T09:22:00;97269.22;;;4.33;100.00
25658;BME280;13517;59.320;18.042;2023-03-14T09:24:25;97351.22;;;4.80;100.00
25658;BME280;13517;59.320;18.042;2023-03-14T09:26:50;97321.56;;;4.63;100.00
25658;BME280;13517;59.320;18.042;2023-03-14T09:29:16;97324.28;;;4.54;100.00
25658;BME280;13517;59.320;18.042;2023-03-14T09:31:41;97347.41;;;4.83;100.00
25658;BME280;13517;59.320;18.042;2023-03-14T09:34:07;97388.25;;;5.13;100.00
25658;BME280;13517;59.320;18.042;2023-03-14T09:36:32;97350.97;;;5.01;100.00
25658;BME280;13517;59.320;18.042;2023-03-14T09:38:58;97369.50;;;5.13;100.00
25658;BME280;13517;59.320;18.042;2023-03-14T09:41:29;97399.41;;;5.36;100.00
25658;BME280;13517;59.320;18.042;2023-03-14T09:44:14;97360.25;;;5.35;100.00
25658;BME280;13517;59.320;18.042;2023-03-14T09:46:44;97392.50;;;5.62;100.00
25658;BME280;13517;59.320;18.042;2023-03-14T09:51:47;97343.84;;;5.48;100.00
25658;BME280;13517;59.320;18.042;2023-03-14T09:57:26;97414.09;;;5.96;100.00
25658;BME280;13517;59.320;18.042;2023-03-14T09:59:56;97333.00;;;5.68;100.00
25658;BME280;13517;59.320;18.042;2023-03-14T10:02:31;97349.75;;;5.88;100.00
25658;BME280;13517;59.320;18.042;2023-03-14T10:04:58;97381.25;;;6.04;100.00
25658;BME280;13517;59.320;18.042;2023-03-14T10:07:28;97425.47;;;6.08;100.00
25658;BME280;13517;59.320;18.042;2023-03-14T10:09:54;97399.09;;;5.85;100.00
25658;BME280;13517;59.320;18.042;2023-03-14T10:12:33;97384.59;;;5.60;100.00
25658;BME280;13517;59.320;18.042;2023-03-14T10:15:06;97451.06;;;5.93;100.00
25658;BME280;13517;59.320;18.042;2023-03-14T10:17:49;97429.03;;;5.81;100.00
25658;BME280;13517;59.320;18.042;2023-03-14T10:20:37;97440.34;;;5.93;100.00
25658;BME280;13517;59.320;18.042;2023-03-14T10:25:40;97427.78;;;6.03;100.00
25658;BME280;13517;59.320;18.042;2023-03-14T10:28:23;97455.66;;;6.10;100.00
25658;BME280;13517;59.320;18.042;2023-03-14T10:30:49;97458.41;;;6.19;100.00
25658;BME280;13517;59.320;18.042;2023-03-14T10:35:44;97434.44;;;6.17;100.00
25658;BME280;13517;59.320;18.042;2023-03-14T10:38:15;97452.19;;;6.36;100.00
25658;BME280;13517;59.320;18.042;2023-03-14T10:40:47;97450.81;;;6.50;100.00
25658;BME280;13517;59.320;18.042;2023-03-14T10:43:21;97383.44;;;6.09;100.00
25658;BME280;13517;59.320;18.042;2023-03-14T10:45:57;97451.56;;;6.61;100.00
25658;BME280;13517;59.320;18.042;2023-03-14T10:48:32;97460.31;;;6.63;100.00
25658;BME280;13517;59.320;18.042;2023-03-14T10:53:42;97473.78;;;6.71;100.00
25658;BME280;13517;59.320;18.042;2023-03-14T10:56:17;97474.69;;;6.62;100.00
25658;BME280;13517;59.320;18.042;2023-03-14T10:58:44;97481.84;;;6.53;100.00
25658;BME280;13517;59.320;18.042;2023-03-14T11:07:41;97467.97;;;6.03;100.00
25658;BME280;13517;59.320;18.042;2023-03-14T11:10:32;97494.44;;;6.06;100.00
25658;BME280;13517;59.320;18.042;2023-03-14T11:13:08;97498.13;;;6.05;100.00
25658;BME280;13517;59.320;18.042;2023-03-14T11:23:54;97510.69;;;5.95;100.00
25658;BME280;13517;59.320;18.042;2023-03-14T11:29:08;97511.94;;;6.00;100.00
25658;BME280;13517;59.320;18.042;2023-03-14T11:31:40;97487.56;;;5.94;100.00
25658;BME280;13517;59.320;18.042;2023-03-14T11:34:23;97519.69;;;6.04;100.00
25658;BME280;13517;59.320;18.042;2023-03-14T11:37:05;97520.69;;;6.03;100.00
25658;BME280;13517;59.320;18.042;2023-03-14T11:39:40;97513.38;;;5.95;100.00
25658;BME280;13517;59.320;18.042;2023-03-14T11:42:12;97475.88;;;5.67;100.00
25658;BME280;13517;59.320;18.042;2023-03-14T11:44:40;97516.34;;;5.92;100.00
25658;BME280;13517;59.320;18.042;2023-03-14T11:47:30;97467.19;;;5.55;100.00
25658;BME280;13517;59.320;18.042;2023-03-14T11:52:32;97532.88;;;5.87;100.00
25658;BME280;13517;59.320;18.042;2023-03-14T11:55:33;97540.38;;;5.83;100.00
25658;BME280;13517;59.320;18.042;2023-03-14T11:58:23;97533.91;;;5.76;100.00
25658;BME280;13517;59.320;18.042;2023-03-14T12:00:51;97524.69;;;5.61;100.00
25658;BME280;13517;59.320;18.042;2023-03-14T12:03:24;97557.94;;;5.58;100.00
25658;BME280;13517;59.320;18.042;2023-03-14T12:08:42;97534.06;;;5.37;100.00
25658;BME280;13517;59.320;18.042;2023-03-14T12:13:38;97537.69;;;5.45;100.00
25658;BME280;13517;59.320;18.042;2023-03-14T12:18:52;97566.81;;;5.58;100.00
25658;BME280;13517;59.320;18.042;2023-03-14T12:21:18;97533.78;;;5.40;100.00
25658;BME280;13517;59.320;18.042;2023-03-14T12:23:54;97535.34;;;5.32;100.00
25658;BME280;13517;59.320;18.042;2023-03-14T12:26:21;97557.44;;;5.44;100.00
25658;BME280;13517;59.320;18.042;2023-03-14T12:42:05;97547.91;;;5.12;100.00
25658;BME280;13517;59.320;18.042;2023-03-14T12:44:40;97547.78;;;5.04;100.00
25658;BME280;13517;59.320;18.042;2023-03-14T12:49:48;97548.19;;;5.19;100.00
25658;BME280;13517;59.320;18.042;2023-03-14T12:57:33;97529.91;;;5.04;100.00
25658;BME280;13517;59.320;18.042;2023-03-14T13:00:18;97540.16;;;5.19;100.00
25658;BME280;13517;59.320;18.042;2023-03-14T13:02:46;97514.25;;;5.10;100.00
25658;BME280;13517;59.320;18.042;2023-03-14T13:05:19;97525.13;;;5.08;100.00
25658;BME280;13517;59.320;18.042;2023-03-14T13:13:25;97549.34;;;5.07;100.00
25658;BME280;13517;59.320;18.042;2023-03-14T13:15:59;97557.25;;;4.88;100.00
25658;BME280;13517;59.320;18.042;2023-03-14T13:18:36;97566.25;;;4.77;100.00
25658;BME280;13517;59.320;18.042;2023-03-14T13:26:23;97557.78;;;4.53;100.00
25658;BME280;13517;59.320;18.042;2023-03-14T13:28:49;97550.47;;;4.35;100.00
25658;BME280;13517;59.320;18.042;2023-03-14T13:31:24;97577.88;;;4.37;100.00
25658;BME280;13517;59.320;18.042;2023-03-14T13:34:06;97558.19;;;4.18;100.00
25658;BME280;13517;59.320;18.042;2023-03-14T13:36:35;97509.47;;;3.85;100.00
25658;BME280;13517;59.320;18.042;2023-03-14T13:39:01;97576.59;;;4.21;100.00
25658;BME280;13517;59.320;18.042;2023-03-14T13:41:29;97555.75;;;4.05;100.00
25658;BME280;13517;59.320;18.042;2023-03-14T13:44:03;97586.09;;;4.04;100.00
25658;BME280;13517;59.320;18.042;2023-03-14T13:46:33;97584.94;;;3.87;100.00
25658;BME280;13517;59.320;18.042;2023-03-14T13:49:03;97545.31;;;3.51;100.00
25658;BME280;13517;59.320;18.042;2023-03-14T13:51:29;97558.97;;;3.58;100.00
25658;BME280;13517;59.320;18.042;2023-03-14T13:53:58;97595.47;;;3.58;100.00
25658;BME280;13517;59.320;18.042;2023-03-14T13:56:29;97598.09;;;3.48;100.00
25658;BME280;13517;59.320;18.042;2023-03-14T13:58:55;97566.44;;;3.33;100.00
25658;BME280;13517;59.320;18.042;2023-03-14T14:01:39;97594.69;;;3.46;100.00
25658;BME280;13517;59.320;18.042;2023-03-14T14:04:13;97575.31;;;3.22;100.00
25658;BME280;13517;59.320;18.042;2023-03-14T14:06:46;97607.41;;;3.32;100.00
25658;BME280;13517;59.320;18.042;2023-03-14T14:09:15;97557.66;;;3.00;100.00
25658;BME280;13517;59.320;18.042;2023-03-14T14:11:48;97610.38;;;3.18;100.00
25658;BME280;13517;59.320;18.042;2023-03-14T14:16:54;97553.41;;;2.76;100.00